Time;durP1;ratioP1;P1;durP2;ratioP2;P2;SDS_P1;SDS_P2;PMS_P1;PMS_P2;Temp;Humidity;BMP_temperature;BMP_pressure;BME280_temperature;BME280_humidity;BME280_pressure;Samples;Min_cycle;Max_cycle;Signal;HPM_P1;HPM_P2
2022/12/04 00:04:30;;;;;;;3.92;3.28;;;;;;;16.69;45.28;96134.34;10477927;28;20032;-29
2022/12/04 00:09:31;;;;;;;3.57;3.10;;;;;;;16.67;44.92;96130.09;10475162;28;20416;-30
2022/12/04 00:14:31;;;;;;;3.30;3.00;;;;;;;16.67;44.86;96126.75;10472679;28;20032;-29
2022/12/04 00:19:32;;;;;;;4.23;3.83;;;;;;;16.68;43.59;96143.59;10477520;28;20024;-29
2022/12/04 00:24:32;;;;;;;4.25;3.30;;;;;;;16.68;44.71;96128.44;10475458;28;20285;-30
2022/12/04 00:29:33;;;;;;;3.47;3.05;;;;;;;16.67;44.77;96106.53;10482598;28;20051;-29
2022/12/04 00:34:33;;;;;;;3.27;2.97;;;;;;;16.67;44.39;96096.41;10475877;28;20039;-29
2022/12/04 00:39:33;;;;;;;3.57;3.27;;;;;;;16.65;44.40;96095.59;10476369;28;20029;-28
2022/12/04 00:44:34;;;;;;;2.40;2.20;;;;;;;16.64;48.29;96105.69;10472446;28;20097;-29
2022/12/04 00:49:34;;;;;;;2.67;2.47;;;;;;;16.64;49.92;96095.59;10485927;28;20025;-29
2022/12/04 00:54:35;;;;;;;2.78;2.53;;;;;;;16.61;50.71;96096.44;10481060;28;20041;-29
2022/12/04 00:59:37;;;;;;;3.67;2.70;;;;;;;16.57;51.34;96102.34;10469303;28;20053;-29
2022/12/04 01:04:37;;;;;;;3.00;2.78;;;;;;;16.54;50.17;96114.97;10488276;28;20286;-29
2022/12/04 01:09:37;;;;;;;2.70;2.50;;;;;;;16.62;46.83;96118.31;10482749;28;20064;-30
2022/12/04 01:14:38;;;;;;;3.13;2.60;;;;;;;16.59;46.13;96108.22;10478769;28;20515;-29
2022/12/04 01:19:39;;;;;;;3.53;2.50;;;;;;;16.63;45.12;96117.47;10489943;28;20544;-29
2022/12/04 01:24:40;;;;;;;3.03;2.67;;;;;;;16.62;44.91;96114.97;10482018;28;20654;-29
2022/12/04 01:29:40;;;;;;;2.80;2.60;;;;;;;16.62;43.96;96123.38;10487568;28;20032;-30
2022/12/04 01:34:41;;;;;;;2.73;2.53;;;;;;;16.62;43.92;96115.78;10483397;28;20024;-29
2022/12/04 01:39:41;;;;;;;3.35;2.63;;;;;;;16.61;44.38;96113.28;10484170;28;20020;-29
2022/12/04 01:45:03;;;;;;;2.77;2.53;;;;;;;16.60;44.24;96104.84;10477191;28;20035;-29
2022/12/04 01:50:03;;;;;;;2.83;2.47;;;;;;;16.62;44.07;96103.16;10492143;28;20046;-29
2022/12/04 01:55:04;;;;;;;3.95;2.70;;;;;;;16.61;44.28;96103.19;10488485;28;20403;-29
2022/12/04 02:00:12;;;;;;;2.85;2.60;;;;;;;16.60;43.90;96101.50;10480398;28;20033;-29
2022/12/04 02:05:19;;;;;;;2.60;2.40;;;;;;;16.54;50.52;96104.88;10480929;28;20044;-29
2022/12/04 02:10:23;;;;;;;2.30;2.10;;;;;;;16.56;50.07;96112.44;10481680;28;20102;-29
2022/12/04 02:15:26;;;;;;;3.78;2.20;;;;;;;16.48;51.02;96093.94;10478802;28;20123;-30
2022/12/04 02:20:45;;;;;;;2.58;2.30;;;;;;;16.49;47.82;96099.00;10500701;28;20102;-29
2022/12/04 02:26:28;;;;;;;2.97;2.55;;;;;;;16.53;46.17;96082.97;10477618;28;20170;-30
2022/12/04 02:31:52;;;;;;;3.72;3.25;;;;;;;16.55;45.73;96078.75;10476103;28;20419;-29
2022/12/04 02:37:03;;;;;;;4.28;3.25;;;;;;;16.54;45.30;96079.59;10481391;28;20055;-29
2022/12/04 02:42:16;;;;;;;3.65;3.22;;;;;;;16.51;44.27;96066.97;10487195;28;20028;-29
2022/12/04 02:47:21;;;;;;;5.10;3.35;;;;;;;16.52;44.15;96070.38;10483206;28;20120;-29
2022/12/04 02:52:27;;;;;;;4.03;2.90;;;;;;;16.54;44.04;96087.19;10474884;28;20036;-29
2022/12/04 02:57:34;;;;;;;4.37;3.60;;;;;;;16.53;43.90;96080.44;10480609;28;20135;-29
2022/12/04 03:02:52;;;;;;;4.57;3.47;;;;;;;16.51;44.12;96073.72;10477335;28;20044;-29
2022/12/04 03:08:02;;;;;;;5.60;3.70;;;;;;;16.52;44.21;96063.59;10482725;28;20487;-29
2022/12/04 03:13:09;;;;;;;4.30;3.38;;;;;;;16.49;43.84;96066.16;10472400;28;20461;-29
2022/12/04 03:18:35;;;;;;;4.35;3.08;;;;;;;16.46;49.18;96050.97;10468423;28;20024;-29
2022/12/04 03:23:55;;;;;;;4.00;3.13;;;;;;;16.46;50.95;96061.09;10475961;28;20509;-29
2022/12/04 03:29:14;;;;;;;3.35;2.70;;;;;;;16.49;50.97;96070.34;10478789;28;20032;-29
2022/12/04 03:34:25;;;;;;;3.00;2.70;;;;;;;16.41;50.76;96057.75;10479969;28;20063;-29
2022/12/04 03:39:48;;;;;;;3.33;2.90;;;;;;;16.41;49.44;96065.34;10486960;28;20028;-29
2022/12/04 03:44:57;;;;;;;3.25;2.72;;;;;;;16.46;47.61;96075.44;10480585;28;20098;-28
2022/12/04 03:50:06;;;;;;;4.35;3.58;;;;;;;16.47;47.08;96074.56;10484499;28;20044;-29
2022/12/04 03:55:14;;;;;;;4.22;3.45;;;;;;;16.47;44.75;96088.06;10482300;28;20059;-30
2022/12/04 04:00:20;;;;;;;5.28;3.15;;;;;;;16.47;44.80;96082.16;10486469;28;20471;-29
2022/12/04 04:05:22;;;;;;;3.95;3.42;;;;;;;16.45;44.20;96092.25;10477346;28;20029;-29
2022/12/04 04:10:25;;;;;;;4.78;3.50;;;;;;;16.46;44.29;96085.53;10486531;28;20127;-29
2022/12/04 04:26:17;;;;;;;3.97;3.45;;;;;;;16.44;43.20;96082.16;10481443;28;20056;-29
2022/12/04 04:31:32;;;;;;;3.60;3.03;;;;;;;16.41;44.72;96077.09;10474334;28;20563;-30
2022/12/04 04:36:51;;;;;;;4.68;3.13;;;;;;;16.39;49.89;96087.25;10475008;28;20079;-29
2022/12/04 04:42:02;;;;;;;2.60;2.40;;;;;;;16.39;50.44;96082.19;10484513;28;20089;-29
2022/12/04 04:47:07;;;;;;;3.63;2.72;;;;;;;16.41;50.46;96079.63;10480676;28;20043;-29
2022/12/04 04:52:08;;;;;;;3.53;2.92;;;;;;;16.34;49.56;96080.44;10466880;28;20058;-30
2022/12/04 04:57:08;;;;;;;3.28;2.72;;;;;;;16.31;49.31;96075.41;10485810;28;20405;-29
2022/12/04 05:02:09;;;;;;;4.17;3.37;;;;;;;16.35;48.08;96079.63;10468682;28;20044;-30
2022/12/04 05:07:09;;;;;;;4.07;2.80;;;;;;;16.38;45.94;96067.03;10478875;28;20048;-29
2022/12/04 05:12:10;;;;;;;2.92;2.60;;;;;;;16.36;45.08;96069.50;10483434;28;20037;-29
2022/12/04 05:17:10;;;;;;;4.23;2.93;;;;;;;16.39;45.42;96078.81;10478789;28;20040;-29
2022/12/04 05:22:12;;;;;;;3.50;3.20;;;;;;;16.38;45.06;96083.00;10482529;28;20029;-29
2022/12/04 05:27:12;;;;;;;2.92;2.50;;;;;;;16.36;45.17;96073.72;10476429;28;20279;-31
2022/12/04 05:32:13;;;;;;;3.35;2.90;;;;;;;16.35;45.96;96077.94;10485064;28;20028;-29
2022/12/04 05:37:13;;;;;;;3.47;2.80;;;;;;;16.37;44.81;96072.91;10481209;28;20036;-30
2022/12/04 05:42:14;;;;;;;3.05;2.75;;;;;;;16.38;44.23;96077.94;10480454;28;20036;-29
2022/12/04 05:47:15;;;;;;;3.28;2.97;;;;;;;16.36;44.69;96084.66;10476345;28;20041;-29
2022/12/04 05:52:15;;;;;;;3.00;2.55;;;;;;;16.33;47.20;96082.16;10477219;28;20385;-29
2022/12/04 05:57:15;;;;;;;3.03;2.73;;;;;;;16.30;50.37;96083.84;10492629;28;20033;-30
2022/12/04 06:02:16;;;;;;;3.20;2.70;;;;;;;16.34;50.50;96086.34;10471073;28;20476;-30
2022/12/04 06:07:17;;;;;;;2.95;2.65;;;;;;;16.28;50.54;96091.41;10480033;28;20052;-31
2022/12/04 06:12:17;;;;;;;4.37;2.80;;;;;;;16.26;48.55;96098.16;10482683;28;20048;-29
2022/12/04 06:17:17;;;;;;;3.73;2.80;;;;;;;16.23;48.84;96102.38;10481652;28;20287;-30
2022/12/04 06:22:18;;;;;;;3.50;3.17;;;;;;;16.27;47.74;96109.13;10487096;28;20047;-30
2022/12/04 06:27:18;;;;;;;4.80;3.10;;;;;;;16.30;46.44;96104.88;10483113;28;20476;-29
2022/12/04 06:32:19;;;;;;;4.93;3.90;;;;;;;16.32;45.12;96112.47;10482189;28;20029;-29
2022/12/04 06:37:22;;;;;;;5.20;4.07;;;;;;;16.30;45.36;96109.91;10486992;28;20043;-30
2022/12/04 06:42:23;;;;;;;5.72;4.90;;;;;;;16.30;45.66;96116.69;10488329;28;20066;-29
2022/12/04 06:47:23;;;;;;;4.63;3.87;;;;;;;16.30;45.64;96114.97;10476632;28;20412;-29
2022/12/04 06:52:23;;;;;;;7.83;5.13;;;;;;;16.28;44.27;96111.63;10474278;28;20450;-29
2022/12/04 06:57:24;;;;;;;6.67;5.17;;;;;;;16.29;44.17;96118.34;10472362;28;20601;-30
2022/12/04 07:02:24;;;;;;;7.33;5.07;;;;;;;16.28;44.31;96129.28;10482704;28;20024;-30
2022/12/04 07:07:25;;;;;;;6.70;4.40;;;;;;;16.28;46.27;96136.88;10476943;28;20286;-30
2022/12/04 07:12:25;;;;;;;4.87;3.30;;;;;;;16.23;49.24;96133.53;10486838;28;20051;-30
2022/12/04 07:17:25;;;;;;;5.70;4.30;;;;;;;16.25;50.29;96136.88;10479114;28;20119;-29
2022/12/04 07:22:26;;;;;;;4.63;3.87;;;;;;;16.26;50.22;96142.75;10485457;28;20036;-29
2022/12/04 07:27:29;;;;;;;6.00;4.13;;;;;;;16.24;49.81;96142.78;10478345;28;20040;-31
2022/12/04 07:32:30;;;;;;;5.80;4.00;;;;;;;16.17;49.90;96155.41;10482032;28;20045;-29
2022/12/04 07:37:33;;;;;;;5.07;4.05;;;;;;;16.14;48.22;96148.69;10485058;28;20502;-29
2022/12/04 07:42:34;;;;;;;5.78;4.43;;;;;;;16.20;47.80;96153.72;10483226;28;20039;-30
2022/12/04 07:47:35;;;;;;;5.60;4.30;;;;;;;16.20;45.92;96148.66;10480754;28;20043;-29
2022/12/04 07:52:36;;;;;;;5.90;4.78;;;;;;;16.19;48.34;96159.59;10472135;28;20040;-29
2022/12/04 07:57:37;;;;;;;6.57;4.78;;;;;;;16.14;47.99;96140.25;10478534;28;20116;-29
2022/12/04 08:02:37;;;;;;;6.70;5.17;;;;;;;16.14;47.03;96138.59;10482906;28;20129;-30
2022/12/04 08:07:37;;;;;;;6.27;4.50;;;;;;;16.20;46.27;96143.59;10475061;28;20044;-30
2022/12/04 08:12:38;;;;;;;7.50;5.10;;;;;;;16.18;45.91;96137.72;10485483;28;20040;-29
2022/12/04 08:17:38;;;;;;;7.73;5.10;;;;;;;16.16;46.63;96126.78;10477218;28;20037;-29
2022/12/04 08:22:39;;;;;;;8.93;6.37;;;;;;;16.18;45.40;96130.16;10483039;28;20837;-29
2022/12/04 08:27:40;;;;;;;8.83;5.93;;;;;;;16.18;46.31;96122.56;10470779;28;20648;-30
2022/12/04 08:32:40;;;;;;;5.97;4.63;;;;;;;16.16;49.99;96118.34;10476123;28;20036;-29
2022/12/04 08:37:40;;;;;;;5.83;4.20;;;;;;;16.19;50.03;96121.72;10482533;28;20029;-29
2022/12/04 08:42:41;;;;;;;6.77;5.13;;;;;;;16.21;50.07;96114.16;10479098;28;20059;-30
2022/12/04 08:47:41;;;;;;;6.07;4.68;;;;;;;16.15;49.83;96122.59;10479547;28;20333;-30
2022/12/04 08:52:42;;;;;;;5.50;4.17;;;;;;;16.11;48.58;96113.31;10472961;28;20032;-29
2022/12/04 08:57:42;;;;;;;7.43;5.97;;;;;;;16.10;48.25;96120.91;10485225;28;20278;-31
2022/12/04 09:02:42;;;;;;;6.17;4.53;;;;;;;16.11;48.74;96120.88;10484598;28;20766;-29
2022/12/04 09:07:43;;;;;;;6.67;5.03;;;;;;;16.10;48.82;96136.88;10478752;28;20032;-29
2022/12/04 09:12:43;;;;;;;5.93;5.10;;;;;;;15.94;48.95;96120.06;10483799;28;20679;-29
2022/12/04 09:17:43;;;;;;;6.63;4.83;;;;;;;16.11;47.48;96143.63;10476457;28;20538;-28
2022/12/04 09:22:44;;;;;;;6.23;4.50;;;;;;;16.12;48.47;96147.00;10482056;28;20407;-29
2022/12/04 09:27:44;;;;;;;6.37;4.90;;;;;;;16.10;48.10;96139.41;10475919;28;20791;-30
2022/12/04 09:32:44;;;;;;;5.60;4.77;;;;;;;16.11;49.00;96147.84;10492229;28;20051;-29
2022/12/04 09:37:45;;;;;;;6.53;5.23;;;;;;;16.10;48.76;96146.16;10489833;28;20033;-29
2022/12/04 09:42:54;;;;;;;6.27;5.03;;;;;;;16.03;46.48;96140.25;10486871;28;20032;-30
2022/12/04 09:48:00;;;;;;;6.43;4.78;;;;;;;16.00;48.54;96130.16;10488278;28;20028;-29
2022/12/04 09:53:16;;;;;;;5.57;4.75;;;;;;;16.07;49.88;96136.03;10480643;28;20048;-29
2022/12/04 09:58:22;;;;;;;5.45;4.40;;;;;;;16.10;49.95;96121.72;10487468;28;20025;-29
2022/12/04 10:03:26;;;;;;;4.85;4.35;;;;;;;16.11;49.54;96125.13;10485363;28;20029;-29
2022/12/04 10:09:08;;;;;;;5.22;4.22;;;;;;;16.08;48.93;96127.63;10486138;28;20068;-29
2022/12/04 10:14:45;;;;;;;6.78;5.18;;;;;;;16.05;48.50;96133.53;10475296;28;20041;-29
2022/12/04 10:19:59;;;;;;;5.38;4.75;;;;;;;16.04;49.31;96125.97;10478232;28;20056;-29
2022/12/04 10:25:17;;;;;;;6.20;4.65;;;;;;;16.00;49.04;96124.25;10488910;28;20133;-29
2022/12/04 10:30:23;;;;;;;5.78;4.40;;;;;;;16.00;49.23;96130.16;10474310;28;20033;-29
2022/12/04 10:35:29;;;;;;;6.13;5.30;;;;;;;16.01;48.39;96141.09;10487617;28;20401;-30
2022/12/04 10:41:09;;;;;;;4.85;4.22;;;;;;;16.02;49.03;96152.88;10488432;28;20539;-29
2022/12/04 10:46:14;;;;;;;6.32;5.03;;;;;;;16.03;48.13;96152.88;10484301;28;20040;-30
2022/12/04 10:51:18;;;;;;;6.90;5.15;;;;;;;16.02;46.89;96161.28;10476439;28;20033;-29
2022/12/04 10:56:24;;;;;;;6.13;5.53;;;;;;;16.02;48.65;96156.25;10477959;28;20028;-30
2022/12/04 11:01:28;;;;;;;6.65;5.15;;;;;;;16.00;49.29;96150.34;10475792;28;20033;-29
2022/12/04 11:06:29;;;;;;;5.70;4.70;;;;;;;16.01;48.24;96156.22;10477451;28;20412;-29
2022/12/04 11:11:33;;;;;;;6.40;4.60;;;;;;;16.04;49.79;96152.03;10487980;28;20112;-29
2022/12/04 11:16:38;;;;;;;6.35;4.93;;;;;;;16.06;49.92;96159.63;10477954;28;20090;-29
2022/12/04 11:21:38;;;;;;;6.30;4.80;;;;;;;16.05;50.15;96146.16;10479294;28;20028;-30
2022/12/04 11:26:41;;;;;;;6.47;5.05;;;;;;;15.98;48.95;96143.63;10480153;28;20032;-30
2022/12/04 11:31:48;;;;;;;6.07;4.70;;;;;;;16.00;48.88;96140.25;10478924;28;20405;-29
2022/12/04 11:36:53;;;;;;;;;;;;;;;15.99;48.71;96142.78;10485193;28;20041;-29
2022/12/04 11:42:17;;;;;;;5.07;4.57;;;;;;;15.91;49.11;96135.22;10484713;28;19923;-29
2022/12/04 11:47:19;;;;;;;6.28;4.97;;;;;;;15.93;49.28;96137.75;10474326;28;20028;-29
2022/12/04 11:52:38;;;;;;;7.45;5.78;;;;;;;15.96;49.16;96128.47;10472733;28;20032;-29
2022/12/04 11:57:46;;;;;;;5.75;5.15;;;;;;;15.90;49.18;96131.00;10476229;28;20040;-33
2022/12/04 12:02:59;;;;;;;6.68;5.00;;;;;;;15.93;49.77;96130.16;10476055;28;20111;-29
2022/12/04 12:08:19;;;;;;;7.82;5.20;;;;;;;15.92;49.35;96129.31;10477414;28;20484;-29
2022/12/04 12:13:37;;;;;;;6.15;4.53;;;;;;;15.91;49.12;96109.09;10476117;28;20040;-30
2022/12/04 12:18:56;;;;;;;6.38;5.13;;;;;;;15.93;49.19;96104.94;10467094;28;20032;-29
2022/12/04 12:24:08;;;;;;;6.28;4.72;;;;;;;15.91;49.73;96099.88;10485450;28;20029;-29
2022/12/04 12:29:41;;;;;;;5.07;4.45;;;;;;;15.94;50.91;96094.81;10467583;28;20041;-29
2022/12/04 12:34:44;;;;;;;5.78;4.70;;;;;;;15.98;50.06;96091.47;10454391;28;20044;-29
2022/12/04 12:39:55;;;;;;;6.53;4.90;;;;;;;16.00;50.06;96084.72;10484438;28;20037;-29
2022/12/04 12:45:16;;;;;;;5.88;4.88;;;;;;;15.89;49.60;96083.03;10481279;28;20032;-29
2022/12/04 12:50:26;;;;;;;5.07;4.57;;;;;;;15.87;49.43;96088.06;10471905;28;20028;-30
2022/12/04 12:55:37;;;;;;;5.05;4.10;;;;;;;15.89;49.25;96076.31;10480503;28;20647;-30
2022/12/04 13:00:43;;;;;;;6.32;5.20;;;;;;;15.90;49.57;96070.44;10489659;28;20392;-30
2022/12/04 13:05:50;;;;;;;5.33;4.40;;;;;;;15.88;49.31;96073.78;10482966;28;20584;-29
2022/12/04 13:11:04;;;;;;;5.63;4.53;;;;;;;15.86;49.29;96062.84;10493081;28;20420;-29
2022/12/04 13:16:11;;;;;;;5.30;4.55;;;;;;;15.82;49.47;96054.44;10485968;28;20035;-29
2022/12/04 13:21:30;;;;;;;4.80;4.28;;;;;;;15.82;50.13;96049.41;10491184;28;20443;-30
2022/12/04 13:26:55;;;;;;;5.55;4.57;;;;;;;15.82;49.23;96041.81;10485122;28;20028;-30
2022/12/04 13:32:07;;;;;;;6.13;4.88;;;;;;;15.83;49.78;96046.03;10483319;28;20068;-29
2022/12/04 13:37:45;;;;;;;6.00;4.80;;;;;;;15.82;49.62;96046.88;10489799;28;20059;-29
2022/12/04 13:42:46;;;;;;;5.47;4.40;;;;;;;15.81;50.13;96052.75;10489257;28;20047;-29
2022/12/04 13:47:56;;;;;;;5.67;4.80;;;;;;;15.84;49.25;96041.81;10485901;28;20507;-29
2022/12/04 13:52:57;;;;;;;4.80;4.28;;;;;;;15.90;49.97;96047.72;10484968;28;20042;-29
2022/12/04 13:58:22;;;;;;;5.28;4.50;;;;;;;15.93;49.86;96045.16;10489367;28;20037;-31
2022/12/04 14:03:23;;;;;;;4.97;4.40;;;;;;;15.89;50.01;96030.03;10476069;28;20029;-29
2022/12/04 14:08:29;;;;;;;5.05;4.20;;;;;;;15.82;49.54;96033.41;10486449;28;20039;-29
2022/12/04 14:13:45;;;;;;;5.47;4.90;;;;;;;15.77;48.51;96025.84;10476210;28;20045;-28
2022/12/04 14:19:00;;;;;;;10.10;6.85;;;;;;;15.55;46.25;96031.75;10478909;28;20029;-29
2022/12/04 14:24:00;;;;;;;9.35;6.80;;;;;;;15.58;46.79;96021.63;10495725;28;20568;-30
2022/12/04 14:29:26;;;;;;;8.43;6.50;;;;;;;15.71;47.91;96025.81;10485059;28;20033;-30
2022/12/04 14:34:30;;;;;;;5.43;4.85;;;;;;;15.72;48.86;96012.41;10480857;28;20294;-29
2022/12/04 14:39:42;;;;;;;6.78;5.75;;;;;;;15.90;47.95;96022.47;10476826;28;20057;-30
2022/12/04 14:44:46;;;;;;;8.32;5.15;;;;;;;16.02;47.55;96017.38;10485441;28;20124;-29
2022/12/04 14:50:28;;;;;;;10.55;5.82;;;;;;;16.09;47.78;96029.16;10480851;28;20032;-29
2022/12/04 14:55:39;;;;;;;23.60;7.53;;;;;;;16.16;48.35;96023.25;10497190;28;20094;-31
2022/12/04 15:00:49;;;;;;;12.05;5.43;;;;;;;16.21;47.54;96029.13;10475801;28;20512;-30
2022/12/04 15:05:59;;;;;;;26.98;8.55;;;;;;;16.29;47.93;96017.31;10488179;28;20025;-29
2022/12/04 15:16:21;;;;;;;23.63;6.90;;;;;;;16.41;46.96;96027.44;10476771;28;20059;-31
2022/12/04 15:21:26;;;;;;;23.90;7.35;;;;;;;16.47;47.16;96034.16;10486689;28;20032;-29
2022/12/04 15:26:27;;;;;;;31.23;7.40;;;;;;;16.56;47.41;96034.97;10504340;28;20028;-30
2022/12/04 15:31:36;;;;;;;24.50;7.28;;;;;;;16.59;46.99;96039.16;10498145;28;20798;-31
2022/12/04 15:36:53;;;;;;;15.32;6.50;;;;;;;16.56;47.84;96036.66;10485339;28;20032;-30
2022/12/04 15:42:22;;;;;;;15.30;7.15;;;;;;;16.54;47.57;96044.22;10490250;28;20109;-30
2022/12/04 15:47:24;;;;;;;21.55;6.90;;;;;;;16.51;47.87;96044.25;10467678;28;20048;-30
2022/12/04 15:52:25;;;;;;;14.63;6.20;;;;;;;16.50;47.97;96047.63;10475293;28;20635;-29
2022/12/04 15:57:29;;;;;;;13.60;6.65;;;;;;;16.52;47.39;96045.91;10474603;28;20044;-30
2022/12/04 16:02:33;;;;;;;11.27;6.35;;;;;;;16.49;48.22;96050.13;10486752;28;20040;-29
2022/12/04 16:07:34;;;;;;;22.98;7.90;;;;;;;16.46;47.49;96035.00;10487168;28;20043;-29
2022/12/04 16:12:34;;;;;;;13.35;6.40;;;;;;;16.47;47.83;96045.13;10494437;28;20484;-29
2022/12/04 16:17:35;;;;;;;13.48;5.85;;;;;;;16.43;48.11;96053.53;10481716;28;20161;-33
2022/12/04 16:22:38;;;;;;;11.25;6.78;;;;;;;16.47;48.47;96055.22;10503482;28;20040;-29
2022/12/04 16:27:39;;;;;;;15.10;7.97;;;;;;;16.52;47.37;96061.09;10498107;28;20059;-29
2022/12/04 16:32:39;;;;;;;10.93;7.20;;;;;;;16.55;47.92;96056.00;10488047;28;20066;-30
2022/12/04 16:37:41;;;;;;;16.00;9.18;;;;;;;16.37;47.47;96022.41;10478334;28;20551;-30
2022/12/04 16:42:43;;;;;;;22.15;12.02;;;;;;;16.45;48.34;96064.47;10480299;28;20048;-30
2022/12/04 16:47:44;;;;;;;23.15;11.25;;;;;;;16.45;48.03;96066.16;10486645;28;20085;-29
2022/12/04 16:52:44;;;;;;;17.55;9.98;;;;;;;16.40;48.38;96071.22;10471273;28;20035;-30
2022/12/04 16:57:46;;;;;;;19.75;10.90;;;;;;;16.35;48.26;96062.78;10483067;28;20037;-30
2022/12/04 17:02:47;;;;;;;29.40;16.42;;;;;;;16.40;48.26;96078.81;10473839;28;20063;-30
2022/12/04 17:07:48;;;;;;;43.95;19.33;;;;;;;16.45;49.29;96092.25;10473980;28;20115;-32
2022/12/04 17:12:52;;;;;;;56.67;30.67;;;;;;;16.48;49.87;96089.75;10477515;28;20633;-30
2022/12/04 17:17:52;;;;;;;54.80;28.88;;;;;;;16.50;48.92;96109.94;10478774;28;20037;-31
2022/12/04 17:22:53;;;;;;;70.33;35.00;;;;;;;16.53;49.69;96103.19;10489293;28;20332;-29
2022/12/04 17:27:53;;;;;;;82.15;38.17;;;;;;;16.50;50.28;96103.19;10477656;28;20114;-29
2022/12/04 17:32:54;;;;;;;52.10;25.20;;;;;;;16.38;47.16;96092.28;10498938;28;20029;-30
2022/12/04 17:37:54;;;;;;;52.88;26.65;;;;;;;16.49;47.63;96106.56;10484952;28;20028;-30
2022/12/04 17:42:55;;;;;;;50.33;28.23;;;;;;;16.49;47.78;96116.69;10482049;28;20039;-31
2022/12/04 17:47:55;;;;;;;44.88;24.10;;;;;;;16.51;47.69;96119.19;10484035;28;20127;-31
2022/12/04 17:52:56;;;;;;;52.63;27.60;;;;;;;16.48;48.54;96125.13;10481941;28;20032;-30
2022/12/04 17:57:56;;;;;;;47.30;26.67;;;;;;;16.49;47.64;96141.94;10492838;28;20364;-32
2022/12/04 18:02:56;;;;;;;45.23;24.73;;;;;;;16.50;47.14;96141.09;10491493;28;20282;-31
2022/12/04 18:07:57;;;;;;;49.90;24.55;;;;;;;16.43;47.90;96134.38;10489231;28;20385;-33
2022/12/04 18:12:57;;;;;;;37.58;21.48;;;;;;;16.51;47.05;96150.34;10486726;28;20024;-30
2022/12/04 18:17:58;;;;;;;40.00;22.53;;;;;;;16.51;47.93;96157.09;10485804;28;20622;-30
2022/12/04 18:22:58;;;;;;;40.07;22.63;;;;;;;16.50;47.30;96157.94;10489432;28;20448;-30
2022/12/04 18:27:59;;;;;;;42.38;22.27;;;;;;;16.49;47.46;96157.09;10479309;28;20040;-31
2022/12/04 18:33:00;;;;;;;32.05;19.48;;;;;;;16.52;47.60;96154.56;10490463;28;20024;-30
2022/12/04 18:38:00;;;;;;;33.83;19.37;;;;;;;16.58;48.15;96169.72;10491557;28;20028;-30
2022/12/04 18:43:00;;;;;;;32.20;18.73;;;;;;;16.60;47.78;96160.44;10484768;28;20041;-30
2022/12/04 18:48:03;;;;;;;32.80;17.92;;;;;;;16.58;47.55;96166.34;10478683;28;20029;-30
2022/12/04 18:53:03;;;;;;;28.60;17.10;;;;;;;16.27;47.20;96160.44;10472236;28;20423;-31
2022/12/04 18:58:04;;;;;;;27.40;16.25;;;;;;;16.39;46.89;96177.31;10487151;28;20028;-30
2022/12/04 19:03:05;;;;;;;30.13;16.23;;;;;;;16.39;48.29;96182.38;10484960;28;20036;-30
2022/12/04 19:08:07;;;;;;;28.92;17.42;;;;;;;16.45;48.90;96170.56;10483607;28;20301;-29
2022/12/04 19:13:07;;;;;;;45.37;22.23;;;;;;;16.47;50.09;96168.91;10485547;28;20040;-30
2022/12/04 19:18:08;;;;;;;52.07;25.10;;;;;;;16.49;50.32;96171.41;10473525;28;20040;-30
2022/12/04 19:23:09;;;;;;;42.03;22.70;;;;;;;16.48;50.61;96169.72;10489225;28;20032;-31
2022/12/04 19:28:10;;;;;;;43.28;21.50;;;;;;;16.54;48.38;96180.66;10464310;28;20805;-29
2022/12/04 19:33:10;;;;;;;40.80;20.77;;;;;;;16.48;48.54;96163.00;10472243;28;20044;-30
2022/12/04 19:38:10;;;;;;;40.03;20.53;;;;;;;16.50;48.84;96173.09;10460507;28;20032;-30
2022/12/04 19:43:11;;;;;;;44.40;20.83;;;;;;;16.47;49.90;96175.63;10478893;28;20079;-30
2022/12/04 19:48:11;;;;;;;35.67;20.13;;;;;;;16.51;49.82;96193.31;10457860;28;20443;-31
2022/12/04 19:53:12;;;;;;;35.28;20.17;;;;;;;16.51;49.39;96194.97;10466297;28;20403;-32
2022/12/04 19:58:12;;;;;;;32.47;18.73;;;;;;;16.48;49.56;96202.56;10473177;28;20037;-32
2022/12/04 20:03:13;;;;;;;34.63;17.48;;;;;;;16.50;48.99;96201.75;10466816;28;20293;-31
2022/12/04 20:08:13;;;;;;;32.40;17.85;;;;;;;16.49;48.44;96206.78;10455878;28;20041;-30
2022/12/04 20:13:13;;;;;;;28.90;14.60;;;;;;;16.41;48.54;96188.25;10459747;28;20048;-30
2022/12/04 20:18:14;;;;;;;23.42;13.93;;;;;;;16.41;48.65;96176.47;10468349;28;20040;-29
2022/12/04 20:23:14;;;;;;;24.50;15.83;;;;;;;16.37;49.71;96182.38;10462152;28;20032;-30
2022/12/04 20:28:15;;;;;;;27.17;15.57;;;;;;;16.45;49.22;96175.63;10458474;28;20968;-29
2022/12/04 20:33:15;;;;;;;26.65;13.95;;;;;;;16.42;49.31;96195.00;10466414;28;20462;-30
2022/12/04 20:38:16;;;;;;;24.08;14.57;;;;;;;16.43;49.25;96197.53;10468569;28;20576;-30
2022/12/04 20:43:16;;;;;;;21.83;13.40;;;;;;;16.40;48.77;96197.53;10466260;28;20450;-29
2022/12/04 20:48:17;;;;;;;24.17;14.13;;;;;;;16.46;48.63;96210.16;10461048;28;20480;-29
2022/12/04 20:53:18;;;;;;;31.37;16.50;;;;;;;16.51;49.69;96200.91;10463751;28;20111;-29
2022/12/04 20:58:18;;;;;;;20.95;13.02;;;;;;;16.63;48.42;96210.16;10464324;28;20535;-30
2022/12/04 21:03:18;;;;;;;24.37;14.23;;;;;;;16.58;49.12;96212.69;10455125;28;20044;-29
2022/12/04 21:08:51;;;;;;;24.70;14.27;;;;;;;16.59;47.99;96214.38;10467406;28;21177;-28
2022/12/04 21:19:00;;;;;;;23.80;13.48;;;;;;;16.57;48.42;96241.31;10473532;28;20044;-29
2022/12/04 21:24:06;;;;;;;20.58;12.15;;;;;;;16.57;48.28;96246.38;10478263;28;20118;-31
2022/12/04 21:29:07;;;;;;;23.00;13.43;;;;;;;16.57;47.82;96241.31;10484336;28;20531;-29
2022/12/04 21:34:10;;;;;;;19.98;11.32;;;;;;;16.58;47.51;96248.06;10486380;28;20293;-29
2022/12/04 21:39:12;;;;;;;19.13;11.15;;;;;;;16.55;47.91;96249.75;10487780;28;20408;-30
2022/12/04 21:44:16;;;;;;;16.45;10.68;;;;;;;16.54;48.23;96264.06;10482879;28;20089;-28
2022/12/04 21:49:18;;;;;;;16.92;10.38;;;;;;;16.52;48.39;96263.22;10480691;28;20041;-29
2022/12/04 21:54:19;;;;;;;18.45;10.65;;;;;;;16.58;49.12;96272.47;10489903;28;20063;-29
2022/12/04 21:59:19;;;;;;;15.23;9.75;;;;;;;16.62;48.19;96275.00;10487233;28;20124;-30
2022/12/04 22:04:20;;;;;;;15.90;10.10;;;;;;;16.57;48.17;96283.44;10476999;28;20494;-29
2022/12/04 22:09:21;;;;;;;20.92;10.75;;;;;;;16.45;49.21;96276.69;10490478;28;20295;-29
2022/12/04 22:14:21;;;;;;;15.00;9.52;;;;;;;16.49;49.08;96293.53;10482058;28;20052;-29
2022/12/04 22:19:21;;;;;;;11.73;8.35;;;;;;;16.49;48.35;96298.59;10477007;28;20033;-29
2022/12/04 22:24:22;;;;;;;14.82;9.15;;;;;;;16.47;49.24;96312.91;10484151;28;20085;-28
2022/12/04 22:29:22;;;;;;;10.53;8.07;;;;;;;16.49;47.91;96312.91;10473825;28;20047;-29
2022/12/04 22:34:23;;;;;;;13.77;8.13;;;;;;;16.48;48.62;96318.81;10476332;28;20028;-30
2022/12/04 22:39:23;;;;;;;11.23;8.20;;;;;;;16.48;47.70;96328.91;10480258;28;20031;-29
2022/12/04 22:44:23;;;;;;;11.80;8.50;;;;;;;16.46;48.56;96323.84;10476593;28;20033;-29
2022/12/04 22:49:24;;;;;;;15.35;8.88;;;;;;;16.45;48.83;96334.78;10473368;28;20723;-33
2022/12/04 22:54:24;;;;;;;11.35;8.45;;;;;;;16.48;48.42;96356.69;10468689;28;20044;-29
2022/12/04 22:59:25;;;;;;;10.40;7.43;;;;;;;16.50;48.27;96360.06;10477263;28;20033;-29
2022/12/04 23:04:25;;;;;;;10.90;7.93;;;;;;;16.54;48.67;96365.13;10471427;28;20047;-29
2022/12/04 23:09:26;;;;;;;10.98;8.32;;;;;;;16.54;48.09;96387.88;10481117;28;20295;-30
2022/12/04 23:14:27;;;;;;;13.77;8.60;;;;;;;16.47;48.30;96386.19;10470961;28;20035;-30
2022/12/04 23:19:30;;;;;;;12.75;8.85;;;;;;;16.45;48.55;96387.84;10472288;28;20013;-29
2022/12/04 23:24:30;;;;;;;10.50;6.80;;;;;;;16.44;48.51;96393.75;10473110;28;20040;-29
2022/12/04 23:29:30;;;;;;;9.67;7.60;;;;;;;16.42;48.21;96400.47;10471706;28;20107;-29
2022/12/04 23:34:31;;;;;;;9.37;6.60;;;;;;;16.42;48.34;96403.00;10475378;28;20353;-29
2022/12/04 23:39:31;;;;;;;10.87;7.00;;;;;;;16.36;48.15;96381.91;10474800;28;20025;-30
2022/12/04 23:44:31;;;;;;;9.23;6.50;;;;;;;16.38;48.17;96381.09;10477565;28;20290;-29
2022/12/04 23:49:32;;;;;;;9.83;6.57;;;;;;;16.37;48.39;96397.09;10468861;28;20051;-29
2022/12/04 23:54:34;;;;;;;8.48;6.55;;;;;;;16.38;48.29;96392.88;10475467;28;20142;-29